Meteo Giornale » Osservazioni meteo Italia » Bari-Palese Macchie

ore: 04:50 - Osservazioni Meteo Bari-Palese Macchie
Lat. 41° 8' N Lon. 16° 47' E Alt. 34 metri s.l.m.

sereno Europe/Rome

24 °C

Sereno

Temp. 24 Ore

23 °C

35 °C

Nord

5.5 Km/h

Dew point 13 °C

Umidità 50 %

Visibilità  10 Km

Il sole sorge alle ore 05:43

Il sole tramonta alle ore 20:15

Data e Ora Cielo e Fenomeni T °C DP °C Um. % Pres. hPa Vis. km Vento km/h
Oggi h: 04:50 sereno Sereno 24 13 50 1015 10 N 5.5
Oggi h: 04:20 sereno Sereno 25 13 47 1015 10 N 5.5
Oggi h: 03:50 sereno Sereno 25 14 50 1015 10 SO 7.4
Oggi h: 03:20 sereno Sereno 25 18 65 1015 10 S/SO 7.4
Oggi h: 02:50 sereno Sereno 26 20 69 1015 10 N 5.5
Oggi h: 02:20 sereno Sereno 27 19 61 1015 10 N 5.5
Oggi h: 01:50 sereno Sereno 28 13 39 1015 10 O/NO 7.4
Oggi h: 01:20 sereno Sereno 29 12 35 1015 10 O 9.3
Oggi h: 00:50 sereno Sereno 29 13 37 1015 10 O/NO 7.4
Oggi h: 00:20 sereno Sereno 29 13 37 1016 10 N 5.5
Ieri h: 23:50 sereno Sereno 29 13 37 1016 10 S/SO 7.4
Ieri h: 23:20 sereno Sereno 30 13 35 1016 10 SO 9.3
Ieri h: 22:50 sereno Sereno 30 14 37 1016 10 S/SO 9.3
Ieri h: 22:20 sereno Sereno 30 14 37 1016 10 S 9.3
Ieri h: 21:50 sereno Sereno 31 15 37 1016 10 N 5.5
Ieri h: 21:20 sereno Sereno 32 17 40 1015 10 N 3.7
Ieri h: 20:50 sereno Sereno 30 21 58 1015 10 N 5.5
Ieri h: 20:20 sereno Sereno 30 23 66 1015 10 N 1.8
Ieri h: 19:50 sereno Sereno 32 21 52 1015 10 NE 7.4
Ieri h: 19:20 sereno Sereno 34 15 32 1015 10 E 13
Ieri h: 18:50 sereno Sereno 34 16 34 1015 10 E 11.1
Ieri h: 18:20 sereno Sereno 34 13 28 1015 10 E 16.7
Ieri h: 17:50 sereno Sereno 35 10 21 1015 10 E/NE 20.3
Ieri h: 17:20 sereno Sereno 35 11 23 1015 10 E/NE 18.5
Ieri h: 16:50 sereno Sereno 35 12 24 1016 10 E/NE 18.5
Ieri h: 16:20 sereno Sereno 35 13 26 1016 10 E/NE 16.7
Ieri h: 15:50 sereno Sereno 33 15 33 1016 10 E/NE 16.7
Ieri h: 15:20 sereno Sereno 33 18 41 1016 10 E/NE 20.3
Ieri h: 14:50 sereno Sereno 33 18 41 1016 10 E/NE 20.3
Ieri h: 14:20 sereno Sereno 33 20 46 1016 10 E/NE 20.3
Ieri h: 13:50 sereno Sereno 34 19 41 1016 10 E/NE 14.8
Ieri h: 13:20 sereno Sereno 35 15 30 1017 10 NE 13
Ieri h: 12:50 sereno Sereno 35 13 26 1017 10 N 11.1
Ieri h: 12:20 sereno Sereno 35 14 28 1017 10 NE 11.1
Ieri h: 11:50 sereno Sereno 34 15 32 1017 10 N/NE 13
Ieri h: 11:20 sereno Sereno 35 14 28 1017 10 N 9.3
Ieri h: 10:50 sereno Sereno 34 16 34 1016 10 N/NE 9.3
Ieri h: 10:20 sereno Sereno 34 17 36 1016 10 N/NE 9.3
Ieri h: 09:50 sereno Sereno 34 18 38 1016 10 N 5.5
Ieri h: 09:20 sereno Sereno 34 16 34 1016 10 N 1.8
Ieri h: 08:50 sereno Sereno 32 18 43 1016 10 N 3.7
Ieri h: 08:20 sereno Sereno 30 18 48 1016 10 S/SO 7.4
Ieri h: 07:50 sereno Sereno 28 18 54 1016 10 S/SO 9.3
Ieri h: 07:20 sereno Sereno 27 16 50 1016 10 N 5.5
Ieri h: 06:20 sereno Sereno 23 15 60 1016 10 SO 9.3
Ieri h: 05:50 sereno Sereno 23 15 60 1016 10 S/SO 9.3